createdAt,value
2023-02-18T00:00:41.250Z,99277.11
2023-02-18T00:02:56.081Z,99275.41
2023-02-18T00:04:58.887Z,99282.33
2023-02-18T00:07:01.708Z,99279.44
2023-02-18T00:09:06.380Z,99280.69
2023-02-18T00:11:09.522Z,99280.52
2023-02-18T00:13:12.741Z,99285.34
2023-02-18T00:15:15.534Z,99283.27
2023-02-18T00:17:18.079Z,99277.60
2023-02-18T00:19:21.251Z,99275.95
2023-02-18T00:21:24.801Z,99275.88
2023-02-18T00:23:27.414Z,99270.42
2023-02-18T00:25:30.061Z,99268.92
2023-02-18T00:27:32.684Z,99261.29
2023-02-18T00:29:37.187Z,99257.64
2023-02-18T00:31:41.726Z,99260.08
2023-02-18T00:33:44.885Z,99262.38
2023-02-18T00:35:52.024Z,99263.49
2023-02-18T00:37:54.863Z,99263.41
2023-02-18T00:39:57.569Z,99259.27
2023-02-18T00:42:00.316Z,99261.63
2023-02-18T00:44:03.802Z,99259.54
2023-02-18T00:46:08.032Z,99265.66
2023-02-18T00:48:11.447Z,99260.08
2023-02-18T00:50:14.277Z,99259.55
2023-02-18T00:52:16.977Z,99263.06
2023-02-18T00:54:23.687Z,99270.05
2023-02-18T00:56:29.013Z,99266.71
2023-02-18T00:58:31.983Z,99267.67
2023-02-18T01:00:35.278Z,99267.10
2023-02-18T01:02:37.977Z,99267.70
2023-02-18T01:04:40.962Z,99275.05
2023-02-18T01:06:43.890Z,99273.52
2023-02-18T01:08:46.703Z,99280.27
2023-02-18T01:10:53.079Z,99287.73
2023-02-18T01:12:56.623Z,99288.13
2023-02-18T01:14:59.348Z,99293.33
2023-02-18T01:17:02.345Z,99295.23
2023-02-18T01:19:05.610Z,99302.90
2023-02-18T01:21:09.369Z,99295.41
2023-02-18T01:23:12.890Z,99295.48
2023-02-18T01:25:16.341Z,99292.36
2023-02-18T01:27:19.317Z,99288.71
2023-02-18T01:29:22.276Z,99285.67
2023-02-18T01:31:25.073Z,99283.88
2023-02-18T01:33:28.328Z,99283.48
2023-02-18T01:35:35.932Z,99277.23
2023-02-18T01:37:42.996Z,99274.36
2023-02-18T01:39:46.043Z,99283.90
2023-02-18T01:41:48.789Z,99285.46
2023-02-18T01:44:14.285Z,99280.15
2023-02-18T01:46:23.329Z,99276.65
2023-02-18T01:48:35.159Z,99272.36
2023-02-18T01:50:43.273Z,99273.52
2023-02-18T01:52:46.015Z,99270.63
2023-02-18T01:54:52.114Z,99260.92
2023-02-18T01:56:59.724Z,99259.13
2023-02-18T01:59:07.443Z,99264.04
2023-02-18T02:01:10.436Z,99259.63
2023-02-18T02:03:13.213Z,99256.77
2023-02-18T02:05:20.336Z,99255.48
2023-02-18T02:07:33.421Z,99253.05
2023-02-18T02:09:43.204Z,99252.16
2023-02-18T02:12:25.860Z,99250.73
2023-02-18T02:14:50.873Z,99251.33
2023-02-18T02:17:04.221Z,99250.13
2023-02-18T02:19:38.099Z,99255.66
2023-02-18T02:22:04.001Z,99241.34
2023-02-18T02:24:44.585Z,99236.84
2023-02-18T02:27:15.143Z,99237.38
2023-02-18T02:29:42.219Z,99239.84
2023-02-18T02:32:13.032Z,99242.39
2023-02-18T02:34:50.649Z,99245.80
2023-02-18T02:37:25.529Z,99236.94
2023-02-18T02:39:42.334Z,99235.84
2023-02-18T02:42:02.517Z,99231.02
2023-02-18T02:44:23.361Z,99230.66
2023-02-18T02:46:38.790Z,99227.16
2023-02-18T02:48:54.407Z,99232.23
2023-02-18T02:51:16.375Z,99238.65
2023-02-18T02:53:32.073Z,99240.63
2023-02-18T02:55:34.745Z,99241.10
2023-02-18T02:57:45.933Z,99239.42
2023-02-18T03:00:04.734Z,99238.29
2023-02-18T03:02:25.396Z,99240.77
2023-02-18T03:04:46.488Z,99237.86
2023-02-18T03:07:00.532Z,99236.85
2023-02-18T03:09:10.709Z,99240.73
2023-02-18T03:11:15.814Z,99239.06
2023-02-18T03:14:02.884Z,99237.55
2023-02-18T03:16:22.160Z,99236.30
2023-02-18T03:18:38.613Z,99237.45
2023-02-18T03:20:50.079Z,99236.93
2023-02-18T03:22:56.035Z,99234.83
2023-02-18T03:25:00.449Z,99232.63
2023-02-18T03:27:34.690Z,99226.06
2023-02-18T03:29:39.516Z,99229.94
2023-02-18T03:31:45.596Z,99227.70
2023-02-18T03:33:54.460Z,99225.52
2023-02-18T03:35:57.606Z,99223.36
2023-02-18T03:38:09.109Z,99223.80
2023-02-18T03:40:14.111Z,99225.27
2023-02-18T03:42:18.797Z,99219.15
2023-02-18T03:44:21.662Z,99218.05
2023-02-18T03:46:24.306Z,99217.86
2023-02-18T03:48:27.306Z,99216.45
2023-02-18T03:50:29.889Z,99222.48
2023-02-18T03:52:32.561Z,99222.75
2023-02-18T03:54:35.959Z,99219.66
2023-02-18T03:56:38.666Z,99220.83
2023-02-18T03:58:41.928Z,99220.67
2023-02-18T04:00:45.993Z,99222.35
2023-02-18T04:02:49.064Z,99220.80
2023-02-18T04:04:52.839Z,99222.42
2023-02-18T04:06:56.928Z,99223.14
2023-02-18T04:09:02.928Z,99230.37
2023-02-18T04:11:06.072Z,99232.02
2023-02-18T04:13:09.302Z,99236.69
2023-02-18T04:15:13.720Z,99236.38
2023-02-18T04:17:16.351Z,99239.91
2023-02-18T04:19:18.932Z,99237.83
2023-02-18T04:21:21.848Z,99237.56
2023-02-18T04:23:24.517Z,99241.13
2023-02-18T04:25:27.245Z,99237.94
2023-02-18T04:27:29.797Z,99236.57
2023-02-18T04:29:32.496Z,99239.07
2023-02-18T04:31:35.199Z,99245.52
2023-02-18T04:33:37.901Z,99243.03
2023-02-18T04:35:42.060Z,99250.74
2023-02-18T04:37:45.091Z,99254.71
2023-02-18T04:39:47.636Z,99257.98
2023-02-18T04:41:50.331Z,99258.08
2023-02-18T04:43:53.012Z,99258.83
2023-02-18T04:45:56.896Z,99255.19
2023-02-18T04:48:00.305Z,99254.21
2023-02-18T04:50:03.989Z,99254.54
2023-02-18T04:52:06.652Z,99253.36
2023-02-18T04:54:09.233Z,99250.27
2023-02-18T04:56:11.981Z,99248.95
2023-02-18T04:58:15.875Z,99245.76
2023-02-18T05:00:20.130Z,99244.15
2023-02-18T05:02:22.738Z,99239.77
2023-02-18T05:04:25.536Z,99234.98
2023-02-18T05:06:28.453Z,99232.80
2023-02-18T05:08:31.476Z,99226.60
2023-02-18T05:10:34.542Z,99225.05
2023-02-18T05:12:37.385Z,99222.71
2023-02-18T05:14:40.064Z,99222.02
2023-02-18T05:16:42.792Z,99220.45
2023-02-18T05:18:45.510Z,99219.17
2023-02-18T05:20:48.338Z,99217.11
2023-02-18T05:22:50.986Z,99214.67
2023-02-18T05:24:53.672Z,99212.55
2023-02-18T05:26:56.637Z,99212.23
2023-02-18T05:28:59.387Z,99206.77
2023-02-18T05:31:02.636Z,99201.75
2023-02-18T05:33:05.621Z,99203.48
2023-02-18T05:35:08.803Z,99197.83
2023-02-18T05:37:13.717Z,99195.20
2023-02-18T05:39:16.376Z,99190.37
2023-02-18T05:41:19.071Z,99190.63
2023-02-18T05:43:21.825Z,99192.83
2023-02-18T05:45:24.534Z,99192.29
2023-02-18T05:47:27.165Z,99193.20
2023-02-18T05:49:31.543Z,99190.91
2023-02-18T05:51:34.191Z,99185.80
2023-02-18T05:53:36.791Z,99182.72
2023-02-18T05:55:39.484Z,99177.40
2023-02-18T05:57:42.372Z,99180.36
2023-02-18T05:59:45.269Z,99175.84
2023-02-18T06:01:48.700Z,99170.94
2023-02-18T06:03:51.388Z,99171.72
2023-02-18T06:05:54.083Z,99174.19
2023-02-18T06:07:56.893Z,99167.73
2023-02-18T06:09:59.930Z,99170.02
2023-02-18T06:12:02.830Z,99169.09
2023-02-18T06:14:06.183Z,99171.13
2023-02-18T06:16:09.154Z,99167.67
2023-02-18T06:18:12.011Z,99167.61
2023-02-18T06:20:14.703Z,99162.70
2023-02-18T06:22:17.511Z,99163.45
2023-02-18T06:24:20.361Z,99157.45
2023-02-18T06:26:23.450Z,99151.36
2023-02-18T06:28:26.110Z,99150.84
2023-02-18T06:30:28.734Z,99154.93
2023-02-18T06:32:31.402Z,99153.81
2023-02-18T06:34:34.006Z,99147.98
2023-02-18T06:36:36.691Z,99147.05
2023-02-18T06:38:42.708Z,99145.57
2023-02-18T06:40:47.549Z,99136.02
2023-02-18T06:42:50.334Z,99140.91
2023-02-18T06:44:53.063Z,99138.55
2023-02-18T06:46:56.004Z,99131.55
2023-02-18T06:48:58.846Z,99128.83
2023-02-18T06:51:01.517Z,99124.44
2023-02-18T06:53:04.643Z,99122.81
2023-02-18T06:55:09.454Z,99125.67
2023-02-18T06:57:12.047Z,99116.13
2023-02-18T06:59:15.023Z,99112.59
2023-02-18T07:01:17.691Z,99117.70
2023-02-18T07:03:20.943Z,99117.00
2023-02-18T07:05:23.994Z,99113.43
2023-02-18T07:07:26.984Z,99110.75
2023-02-18T07:09:29.904Z,99108.86
2023-02-18T07:11:34.054Z,99112.14
2023-02-18T07:13:37.678Z,99111.82
2023-02-18T07:15:40.778Z,99108.33
2023-02-18T07:17:43.437Z,99108.59
2023-02-18T07:19:46.036Z,99109.12
2023-02-18T07:21:48.600Z,99111.23
2023-02-18T07:23:51.321Z,99105.30
2023-02-18T07:26:03.430Z,99105.08
2023-02-18T07:28:06.106Z,99100.75
2023-02-18T07:30:09.515Z,99095.73
2023-02-18T07:32:14.006Z,99098.64
2023-02-18T07:34:16.939Z,99096.41
2023-02-18T07:36:19.460Z,99092.52
2023-02-18T07:38:22.997Z,99086.19
2023-02-18T07:40:30.947Z,99085.02
2023-02-18T07:42:34.641Z,99082.79
2023-02-18T07:44:38.467Z,99090.63
2023-02-18T07:46:42.297Z,99084.52
2023-02-18T07:48:48.006Z,99084.99
2023-02-18T07:50:50.717Z,99081.45
2023-02-18T07:52:53.572Z,99082.05
2023-02-18T07:54:56.442Z,99090.63
2023-02-18T07:56:58.976Z,99088.04
2023-02-18T07:59:01.765Z,99091.80
2023-02-18T08:01:10.082Z,99092.58
2023-02-18T08:03:13.652Z,99093.66
2023-02-18T08:05:16.908Z,99091.27
2023-02-18T08:07:22.760Z,99086.52
2023-02-18T08:09:25.459Z,99085.10
2023-02-18T08:11:28.184Z,99085.83
2023-02-18T08:13:31.002Z,99078.38
2023-02-18T08:15:33.625Z,99081.66
2023-02-18T08:17:36.332Z,99083.02
2023-02-18T08:19:39.067Z,99074.04
2023-02-18T08:21:41.688Z,99065.70
2023-02-18T08:23:44.918Z,99059.75
2023-02-18T08:25:51.336Z,99058.26
2023-02-18T08:27:54.164Z,99053.48
2023-02-18T08:29:56.900Z,99049.20
2023-02-18T08:31:59.744Z,99039.18
2023-02-18T08:34:03.775Z,99042.23
2023-02-18T08:36:09.299Z,99035.49
2023-02-18T08:38:12.436Z,99030.44
2023-02-18T08:40:17.385Z,99033.01
2023-02-18T08:42:20.212Z,99036.02
2023-02-18T08:44:23.810Z,99037.31
2023-02-18T08:46:35.148Z,99037.09
2023-02-18T08:48:39.857Z,99036.05
2023-02-18T08:50:42.511Z,99039.22
2023-02-18T08:52:45.436Z,99035.38
2023-02-18T08:54:48.145Z,99029.73
2023-02-18T08:56:55.661Z,99033.67
2023-02-18T08:58:58.489Z,99036.42
2023-02-18T09:01:02.631Z,99028.45
2023-02-18T09:03:05.326Z,99032.67
2023-02-18T09:05:09.644Z,99019.81
2023-02-18T09:07:12.265Z,99035.21
2023-02-18T09:09:15.501Z,99039.89
2023-02-18T09:11:19.594Z,99038.45
2023-02-18T09:13:22.352Z,99037.64
2023-02-18T09:15:24.987Z,99034.43
2023-02-18T09:17:28.714Z,99038.84
2023-02-18T09:19:31.504Z,99039.77
2023-02-18T09:21:34.266Z,99041.54
2023-02-18T09:23:38.466Z,99037.89
2023-02-18T09:25:41.363Z,99035.46
2023-02-18T09:27:44.981Z,99037.67
2023-02-18T09:29:49.786Z,99036.48
2023-02-18T09:31:52.514Z,99037.08
2023-02-18T09:34:02.349Z,99036.26
2023-02-18T09:36:05.403Z,99038.60
2023-02-18T09:38:10.446Z,99033.57
2023-02-18T09:40:28.261Z,99024.04
2023-02-18T09:42:35.022Z,99035.58
2023-02-18T09:44:49.730Z,99033.87
2023-02-18T09:46:54.364Z,99035.55
2023-02-18T09:49:00.533Z,99026.63
2023-02-18T09:51:03.389Z,99024.17
2023-02-18T09:53:06.109Z,99008.64
2023-02-18T09:55:27.494Z,99017.73
2023-02-18T09:57:41.206Z,99007.48
2023-02-18T09:59:45.613Z,99008.47
2023-02-18T10:01:54.963Z,98998.40
2023-02-18T10:04:04.982Z,99000.13
2023-02-18T10:06:29.941Z,98999.69
2023-02-18T10:08:45.479Z,98995.21
2023-02-18T10:10:48.818Z,98996.61
2023-02-18T10:12:53.073Z,98996.40
2023-02-18T10:14:59.849Z,99000.25
2023-02-18T10:17:04.511Z,99002.98
2023-02-18T10:19:24.243Z,98998.52
2023-02-18T10:21:36.174Z,99002.09
2023-02-18T10:23:43.229Z,99002.02
2023-02-18T10:25:48.799Z,99012.98
2023-02-18T10:27:53.656Z,99017.11
2023-02-18T10:30:17.771Z,99009.77
2023-02-18T10:32:40.608Z,99009.17
2023-02-18T10:34:50.147Z,99005.71
2023-02-18T10:37:03.065Z,99004.25
2023-02-18T10:39:32.238Z,98994.39
2023-02-18T10:42:01.070Z,98997.63
2023-02-18T10:44:28.639Z,98993.92
2023-02-18T10:47:00.791Z,98993.46
2023-02-18T10:49:31.856Z,98997.77
2023-02-18T10:51:37.517Z,98994.61
2023-02-18T10:53:43.875Z,98986.69
2023-02-18T10:55:49.223Z,98997.98
2023-02-18T10:57:55.015Z,98984.80
2023-02-18T11:00:00.291Z,98981.21
2023-02-18T11:02:15.894Z,98979.66
2023-02-18T11:04:21.256Z,98981.73
2023-02-18T11:06:32.536Z,98975.86
2023-02-18T11:08:43.824Z,98972.95
2023-02-18T11:10:48.328Z,98970.58
2023-02-18T11:12:56.544Z,98968.23
2023-02-18T11:15:20.304Z,98976.48
2023-02-18T11:17:30.626Z,98983.38
2023-02-18T11:19:34.747Z,98967.17
2023-02-18T11:21:38.625Z,98975.19
2023-02-18T11:23:50.747Z,98972.81
2023-02-18T11:26:03.507Z,98972.65
2023-02-18T11:28:24.228Z,98967.25
2023-02-18T11:30:34.922Z,98959.77
2023-02-18T11:32:38.250Z,98964.14
2023-02-18T11:34:43.346Z,98963.63
2023-02-18T11:36:47.355Z,98955.20
2023-02-18T11:38:54.428Z,98961.77
2023-02-18T11:41:10.421Z,98960.02
2023-02-18T11:43:16.616Z,98965.33
2023-02-18T11:45:31.670Z,98970.38
2023-02-18T11:47:36.716Z,98970.63
2023-02-18T11:49:40.691Z,98977.34
2023-02-18T11:51:43.592Z,98975.83
2023-02-18T11:54:22.422Z,98967.49
2023-02-18T11:56:29.429Z,98962.02
2023-02-18T11:58:39.864Z,98959.36
2023-02-18T12:00:43.998Z,98961.98
2023-02-18T12:02:47.596Z,98948.45
2023-02-18T12:04:58.480Z,98940.72
2023-02-18T12:07:16.330Z,98944.63
2023-02-18T12:09:32.003Z,98935.31
2023-02-18T12:11:41.057Z,98931.68
2023-02-18T12:13:55.306Z,98937.30
2023-02-18T12:16:16.873Z,98932.48
2023-02-18T12:18:40.432Z,98924.19
2023-02-18T12:20:58.977Z,98919.67
2023-02-18T12:23:39.244Z,98910.02
2023-02-18T12:25:52.831Z,98892.56
2023-02-18T12:28:18.493Z,98900.55
2023-02-18T12:30:32.800Z,98897.32
2023-02-18T12:32:51.904Z,98903.14
2023-02-18T12:35:13.352Z,98904.73
2023-02-18T12:37:46.396Z,98909.07
2023-02-18T12:40:08.693Z,98907.28
2023-02-18T12:42:17.457Z,98901.55
2023-02-18T12:44:45.550Z,98896.76
2023-02-18T12:47:15.783Z,98893.37
2023-02-18T12:49:50.172Z,98892.98
2023-02-18T12:52:24.963Z,98899.90
2023-02-18T12:54:42.443Z,98894.77
2023-02-18T12:56:55.005Z,98893.16
2023-02-18T12:59:37.145Z,98891.89
2023-02-18T13:01:43.850Z,98896.71
2023-02-18T13:04:00.986Z,98910.06
2023-02-18T13:06:48.837Z,98902.61
2023-02-18T13:09:10.346Z,98897.70
2023-02-18T13:11:16.959Z,98903.05
2023-02-18T13:13:22.228Z,98896.89
2023-02-18T13:15:54.972Z,98904.95
2023-02-18T13:18:01.936Z,98900.39
2023-02-18T13:20:14.870Z,98895.45
2023-02-18T13:22:21.727Z,98901.66
2023-02-18T13:24:32.169Z,98906.66
2023-02-18T13:26:35.169Z,98922.02
2023-02-18T13:28:49.404Z,98916.10
2023-02-18T13:31:22.320Z,98909.65
2023-02-18T13:33:52.145Z,98916.92
2023-02-18T13:36:05.696Z,98916.64
2023-02-18T13:38:34.032Z,98915.98
2023-02-18T13:40:38.708Z,98912.83
2023-02-18T13:42:43.035Z,98915.06
2023-02-18T13:44:48.423Z,98901.92
2023-02-18T13:46:56.977Z,98903.55
2023-02-18T13:49:14.219Z,98899.95
2023-02-18T13:51:33.707Z,98909.23
2023-02-18T13:53:49.459Z,98908.27
2023-02-18T13:56:05.690Z,98905.23
2023-02-18T13:58:18.611Z,98906.08
2023-02-18T14:00:26.368Z,98911.05
2023-02-18T14:02:36.042Z,98908.86
2023-02-18T14:04:44.781Z,98905.45
2023-02-18T14:07:44.431Z,98907.20
2023-02-18T14:09:47.288Z,98908.77
2023-02-18T14:12:16.485Z,98903.52
2023-02-18T14:14:28.176Z,98907.16
2023-02-18T14:17:17.421Z,98898.85
2023-02-18T14:19:29.900Z,98897.82
2023-02-18T14:21:43.525Z,98895.77
2023-02-18T14:23:52.081Z,98891.64
2023-02-18T14:26:19.249Z,98888.15
2023-02-18T14:28:34.154Z,98885.77
2023-02-18T14:30:42.237Z,98896.08
2023-02-18T14:32:48.479Z,98900.98
2023-02-18T14:35:20.823Z,98903.49
2023-02-18T14:37:39.050Z,98911.59
2023-02-18T14:39:41.567Z,98916.31
2023-02-18T14:42:14.209Z,98918.95
2023-02-18T14:45:01.750Z,98914.16
2023-02-18T14:47:07.352Z,98919.01
2023-02-18T14:49:28.321Z,98924.15
2023-02-18T14:51:34.054Z,98918.79
2023-02-18T14:53:44.516Z,98922.55
2023-02-18T14:55:55.167Z,98922.41
2023-02-18T14:58:05.842Z,98924.10
2023-02-18T15:00:20.492Z,98918.03
2023-02-18T15:02:31.102Z,98918.06
2023-02-18T15:04:33.944Z,98928.30
2023-02-18T15:06:38.279Z,98921.50
2023-02-18T15:08:41.027Z,98923.70
2023-02-18T15:10:59.165Z,98927.05
2023-02-18T15:13:08.014Z,98924.06
2023-02-18T15:15:16.076Z,98926.31
2023-02-18T15:17:22.998Z,98920.64
2023-02-18T15:19:28.987Z,98916.43
2023-02-18T15:21:41.080Z,98913.65
2023-02-18T15:23:43.822Z,98916.05
2023-02-18T15:25:52.783Z,98914.26
2023-02-18T15:27:55.491Z,98906.80
2023-02-18T15:30:19.877Z,98897.36
2023-02-18T15:32:28.561Z,98895.36
2023-02-18T15:34:34.315Z,98886.52
2023-02-18T15:36:37.171Z,98887.21
2023-02-18T15:38:43.358Z,98887.19
2023-02-18T15:40:52.740Z,98883.55
2023-02-18T15:42:58.963Z,98890.56
2023-02-18T15:45:13.063Z,98889.80
2023-02-18T15:47:17.929Z,98900.60
2023-02-18T15:49:24.287Z,98896.45
2023-02-18T15:51:30.135Z,98896.29
2023-02-18T15:53:37.273Z,98900.52
2023-02-18T15:55:41.434Z,98900.84
2023-02-18T15:57:45.548Z,98902.80
2023-02-18T15:59:56.461Z,98902.38
2023-02-18T16:02:08.369Z,98906.52
2023-02-18T16:04:15.167Z,98907.99
2023-02-18T16:06:25.253Z,98915.98
2023-02-18T16:08:28.322Z,98907.35
2023-02-18T16:10:36.902Z,98911.61
2023-02-18T16:12:39.907Z,98915.98
2023-02-18T16:14:48.213Z,98910.08
2023-02-18T16:17:09.935Z,98909.08
2023-02-18T16:19:25.014Z,98909.21
2023-02-18T16:21:38.060Z,98912.67
2023-02-18T16:23:43.749Z,98908.58
2023-02-18T16:25:48.949Z,98904.70
2023-02-18T16:28:17.328Z,98904.02
2023-02-18T16:30:24.175Z,98906.50
2023-02-18T16:32:27.099Z,98915.48
2023-02-18T16:34:29.814Z,98904.65
2023-02-18T16:36:32.905Z,98912.11
2023-02-18T16:38:35.899Z,98911.52
2023-02-18T16:40:40.590Z,98914.75
2023-02-18T16:42:43.202Z,98921.45
2023-02-18T16:44:48.013Z,98921.64
2023-02-18T16:46:50.662Z,98920.86
2023-02-18T16:48:56.657Z,98926.73
2023-02-18T16:51:02.702Z,98927.70
2023-02-18T16:53:05.421Z,98936.71
2023-02-18T16:55:19.083Z,98939.34
2023-02-18T16:57:22.104Z,98942.13
2023-02-18T16:59:25.721Z,98948.23
2023-02-18T17:01:44.913Z,98948.44
2023-02-18T17:03:48.970Z,98949.45
2023-02-18T17:05:52.205Z,98955.38
2023-02-18T17:07:59.739Z,98949.11
2023-02-18T17:10:02.539Z,98960.45
2023-02-18T17:12:07.609Z,98951.02
2023-02-18T17:14:14.660Z,98956.63
2023-02-18T17:16:18.244Z,98962.81
2023-02-18T17:18:21.288Z,98961.72
2023-02-18T17:20:26.591Z,98968.48
2023-02-18T17:22:29.421Z,98975.10
2023-02-18T17:24:33.586Z,98971.33
2023-02-18T17:26:36.113Z,98981.73
2023-02-18T17:28:38.693Z,98984.89
2023-02-18T17:30:42.055Z,98993.27
2023-02-18T17:32:45.629Z,98993.90
2023-02-18T17:34:48.583Z,98993.23
2023-02-18T17:36:51.303Z,98992.09
2023-02-18T17:38:54.310Z,98995.27
2023-02-18T17:40:57.009Z,98996.63
2023-02-18T17:42:59.612Z,98996.80
2023-02-18T17:45:03.521Z,98998.73
2023-02-18T17:47:06.319Z,98997.62
2023-02-18T17:49:08.966Z,99000.81
2023-02-18T17:51:27.547Z,99005.70
2023-02-18T17:53:30.204Z,99006.04
2023-02-18T17:55:35.873Z,99011.20
2023-02-18T17:57:38.786Z,99011.30
2023-02-18T17:59:42.508Z,99009.79
2023-02-18T18:01:48.304Z,99013.96
2023-02-18T18:03:50.991Z,99012.88
2023-02-18T18:05:54.512Z,99011.86
2023-02-18T18:07:57.139Z,99011.66
2023-02-18T18:09:59.890Z,99006.99
2023-02-18T18:12:03.563Z,99004.89
2023-02-18T18:14:06.398Z,99001.83
2023-02-18T18:16:17.708Z,99004.78
2023-02-18T18:18:21.193Z,99011.21
2023-02-18T18:20:26.626Z,99011.14
2023-02-18T18:22:29.553Z,99014.10
2023-02-18T18:24:32.471Z,99018.04
2023-02-18T18:26:35.605Z,99022.88
2023-02-18T18:28:38.857Z,99024.27
2023-02-18T18:30:45.148Z,99025.10
2023-02-18T18:32:48.204Z,99024.45
2023-02-18T18:34:51.251Z,99027.64
2023-02-18T18:36:56.785Z,99031.89
2023-02-18T18:38:59.710Z,99030.23
2023-02-18T18:41:02.554Z,99027.61
2023-02-18T18:43:06.153Z,99025.90
2023-02-18T18:45:23.538Z,99024.88
2023-02-18T18:47:26.335Z,99023.45
2023-02-18T18:49:29.032Z,99024.92
2023-02-18T18:51:32.976Z,99022.46
2023-02-18T18:53:36.418Z,99016.29
2023-02-18T18:55:40.951Z,99015.03
2023-02-18T18:57:45.288Z,99015.35
2023-02-18T18:59:48.998Z,99010.00
2023-02-18T19:01:53.264Z,98998.02
2023-02-18T19:03:56.386Z,98991.38
2023-02-18T19:05:59.169Z,98993.44
2023-02-18T19:08:05.601Z,98984.30
2023-02-18T19:10:08.423Z,98988.99
2023-02-18T19:12:11.055Z,98994.70
2023-02-18T19:14:14.473Z,98991.17
2023-02-18T19:16:22.507Z,98992.34
2023-02-18T19:18:25.177Z,99000.24
2023-02-18T19:20:30.579Z,99000.20
2023-02-18T19:22:34.455Z,98995.77
2023-02-18T19:24:39.840Z,98991.45
2023-02-18T19:26:42.408Z,98986.02
2023-02-18T19:28:45.735Z,98993.05
2023-02-18T19:30:48.621Z,98989.96
2023-02-18T19:32:53.806Z,98993.88
2023-02-18T19:34:57.110Z,99005.10
2023-02-18T19:37:00.918Z,99011.55
2023-02-18T19:39:11.012Z,99008.40
2023-02-18T19:41:19.401Z,99005.42
2023-02-18T19:43:22.319Z,99011.64
2023-02-18T19:45:25.639Z,99017.02
2023-02-18T19:47:28.802Z,99018.55
2023-02-18T19:49:31.604Z,99015.67
2023-02-18T19:51:34.159Z,99017.45
2023-02-18T19:53:37.115Z,99016.46
2023-02-18T19:55:39.729Z,99020.05
2023-02-18T19:57:42.328Z,99019.58
2023-02-18T19:59:46.295Z,99032.19
2023-02-18T20:01:48.932Z,99027.89
2023-02-18T20:03:51.511Z,99031.97
2023-02-18T20:05:54.689Z,99031.22
2023-02-18T20:07:57.785Z,99032.94
2023-02-18T20:10:00.393Z,99030.42
2023-02-18T20:12:06.032Z,99032.77
2023-02-18T20:14:09.049Z,99037.52
2023-02-18T20:16:12.236Z,99041.15
2023-02-18T20:18:14.950Z,99044.39
2023-02-18T20:20:19.232Z,99045.65
2023-02-18T20:22:21.863Z,99047.58
2023-02-18T20:24:24.454Z,99048.59
2023-02-18T20:26:27.194Z,99046.53
2023-02-18T20:28:29.902Z,99045.52
2023-02-18T20:30:32.616Z,99045.71
2023-02-18T20:32:36.446Z,99045.48
2023-02-18T20:34:39.698Z,99044.75
2023-02-18T20:36:44.148Z,99044.27
2023-02-18T20:38:51.800Z,99044.99
2023-02-18T20:40:54.429Z,99048.18
2023-02-18T20:42:57.056Z,99040.16
2023-02-18T20:44:59.632Z,99040.27
2023-02-18T20:47:02.265Z,99044.06
2023-02-18T20:49:09.023Z,99046.52
2023-02-18T20:51:14.204Z,99048.13
2023-02-18T20:53:16.892Z,99049.71
2023-02-18T20:55:19.520Z,99054.25
2023-02-18T20:57:22.306Z,99054.65
2023-02-18T20:59:26.231Z,99065.00
2023-02-18T21:01:29.381Z,99063.59
2023-02-18T21:03:33.014Z,99068.08
2023-02-18T21:05:35.710Z,99071.85
2023-02-18T21:07:40.882Z,99068.34
2023-02-18T21:09:43.667Z,99072.11
2023-02-18T21:11:48.052Z,99070.05
2023-02-18T21:13:54.272Z,99071.29
2023-02-18T21:15:56.967Z,99069.20
2023-02-18T21:17:59.730Z,99068.45
2023-02-18T21:20:03.144Z,99062.91
2023-02-18T21:22:05.806Z,99065.33
2023-02-18T21:24:08.631Z,99058.79
2023-02-18T21:26:13.868Z,99059.15
2023-02-18T21:28:17.428Z,99050.06
2023-02-18T21:30:20.310Z,99043.42
2023-02-18T21:32:23.296Z,99043.32
2023-02-18T21:34:26.318Z,99044.70
2023-02-18T21:36:31.261Z,99042.17
2023-02-18T21:38:34.326Z,99041.20
2023-02-18T21:40:36.949Z,99044.21
2023-02-18T21:42:39.547Z,99040.42
2023-02-18T21:44:43.228Z,99038.84
2023-02-18T21:46:46.070Z,99040.27
2023-02-18T21:49:09.966Z,99039.11
2023-02-18T21:51:33.004Z,99037.52
2023-02-18T21:53:35.941Z,99034.24
2023-02-18T21:55:38.828Z,99032.40
2023-02-18T21:57:41.463Z,99035.63
2023-02-18T21:59:45.351Z,99038.82
2023-02-18T22:01:49.882Z,99038.77
2023-02-18T22:03:55.148Z,99037.73
2023-02-18T22:05:57.731Z,99035.30
2023-02-18T22:08:01.692Z,99030.77
2023-02-18T22:10:04.534Z,99032.41
2023-02-18T22:12:07.765Z,99034.99
2023-02-18T22:14:12.584Z,99035.36
2023-02-18T22:16:15.826Z,99029.99
2023-02-18T22:18:18.532Z,99032.42
2023-02-18T22:20:21.809Z,99027.73
2023-02-18T22:22:24.606Z,99024.14
2023-02-18T22:24:27.419Z,99021.57
2023-02-18T22:26:31.022Z,99021.86
2023-02-18T22:28:34.721Z,99011.73
2023-02-18T22:30:39.770Z,99012.56
2023-02-18T22:32:42.366Z,99025.12
2023-02-18T22:34:45.292Z,99022.40
2023-02-18T22:36:49.667Z,99027.58
2023-02-18T22:38:53.012Z,99016.05
2023-02-18T22:41:02.481Z,99008.05
2023-02-18T22:43:05.128Z,99004.42
2023-02-18T22:45:08.003Z,99004.11
2023-02-18T22:47:11.017Z,99001.72
2023-02-18T22:49:13.873Z,99002.17
2023-02-18T22:51:20.174Z,98998.71
2023-02-18T22:53:23.667Z,98996.03
2023-02-18T22:55:26.262Z,98997.42
2023-02-18T22:57:29.423Z,98999.21
2023-02-18T22:59:32.125Z,98996.70
2023-02-18T23:01:37.138Z,98995.38
2023-02-18T23:03:42.062Z,98986.17
2023-02-18T23:05:45.430Z,98985.57
2023-02-18T23:07:48.226Z,98977.96
2023-02-18T23:09:50.981Z,98972.46
2023-02-18T23:11:57.984Z,98966.38
2023-02-18T23:14:19.019Z,98968.50
2023-02-18T23:16:22.601Z,98971.90
2023-02-18T23:18:26.069Z,98964.13
2023-02-18T23:20:47.228Z,98960.42
2023-02-18T23:22:49.965Z,98955.55
2023-02-18T23:24:52.574Z,98961.77
2023-02-18T23:26:55.392Z,98965.27
2023-02-18T23:28:58.498Z,98966.00
2023-02-18T23:31:01.421Z,98964.67
2023-02-18T23:33:04.134Z,98966.65
2023-02-18T23:35:07.141Z,98964.08
2023-02-18T23:37:10.491Z,98963.62
2023-02-18T23:39:20.190Z,98966.00
2023-02-18T23:41:24.270Z,98966.04
2023-02-18T23:43:30.806Z,98966.84
2023-02-18T23:45:34.003Z,98958.30
2023-02-18T23:47:36.750Z,98950.64
2023-02-18T23:49:39.665Z,98952.20
2023-02-18T23:51:42.873Z,98951.63
2023-02-18T23:53:45.826Z,98950.13
2023-02-18T23:55:48.550Z,98941.33
2023-02-18T23:57:51.393Z,98938.27
2023-02-18T23:59:54.049Z,98934.97
